Time;durP1;ratioP1;P1;durP2;ratioP2;P2;SDS_P1;SDS_P2;PMS_P1;PMS_P2;Temp;Humidity;BMP_temperature;BMP_pressure;BME280_temperature;BME280_humidity;BME280_pressure;Samples;Min_cycle;Max_cycle;Signal;HPM_P1;HPM_P2
2022/06/14 00:04:03;;;;;;;5.20;2.60;;;;;;;15.19;60.81;99216.65;235835;1203;138434;-57
2022/06/14 00:09:24;;;;;;;8.30;2.60;;;;;;;15.17;60.87;99215.04;235782;1203;140105;-60
2022/06/14 00:14:27;;;;;;;7.20;3.50;;;;;;;15.14;60.80;99216.99;235708;1203;138331;-58
2022/06/14 00:19:30;;;;;;;7.80;3.70;;;;;;;15.12;60.81;99224.84;235772;1203;139357;-59
2022/06/14 00:24:33;;;;;;;7.50;3.80;;;;;;;15.02;60.68;99227.93;235797;1202;140321;-59
2022/06/14 00:29:35;;;;;;;8.50;4.20;;;;;;;14.92;60.71;99235.91;235718;1203;138042;-58
2022/06/14 00:34:38;;;;;;;6.50;4.20;;;;;;;14.84;60.87;99238.21;235561;1203;139133;-58
2022/06/14 00:39:46;;;;;;;8.10;4.00;;;;;;;14.76;60.93;99232.48;235824;1202;138398;-58
2022/06/14 00:45:07;;;;;;;6.80;3.80;;;;;;;14.70;61.02;99240.05;235715;1203;138153;-59
2022/06/14 00:50:22;;;;;;;9.30;3.60;;;;;;;14.68;61.17;99243.57;235651;1203;139998;-58
2022/06/14 00:55:33;;;;;;;9.00;3.80;;;;;;;14.65;61.27;99249.54;235643;1202;139829;-58
2022/06/14 01:00:48;;;;;;;6.60;3.70;;;;;;;14.66;61.43;99249.96;235616;1203;138758;-58
2022/06/14 01:06:05;;;;;;;8.30;4.00;;;;;;;14.67;61.51;99248.88;235819;1203;139650;-59
2022/06/14 01:11:12;;;;;;;7.90;4.40;;;;;;;14.71;61.61;99256.95;235290;1203;139137;-59
2022/06/14 01:16:15;;;;;;;9.60;4.50;;;;;;;14.74;61.62;99257.95;235778;1203;139282;-58
2022/06/14 01:21:18;;;;;;;9.70;4.00;;;;;;;14.70;61.67;99253.95;235536;1203;139035;-58
2022/06/14 01:26:25;;;;;;;9.30;4.10;;;;;;;14.74;61.70;99262.61;235665;1203;139618;-57
2022/06/14 01:31:30;;;;;;;6.40;4.40;;;;;;;14.75;61.93;99263.05;235482;1203;139121;-58
2022/06/14 01:36:36;;;;;;;9.20;5.00;;;;;;;14.81;62.08;99265.13;235675;1204;139254;-57
2022/06/14 01:41:54;;;;;;;9.90;5.80;;;;;;;14.83;62.18;99262.63;235688;1203;138513;-55
2022/06/14 01:47:20;;;;;;;14.10;6.90;;;;;;;14.90;62.35;99261.60;235601;1203;139819;-56
2022/06/14 01:52:26;;;;;;;;;;;;;;;14.93;62.47;99265.95;235735;1203;138709;-58
2022/06/14 01:57:52;;;;;;;17.40;8.80;;;;;;;14.95;62.65;99263.29;235083;1203;124681;-58
2022/06/14 02:08:44;;;;;;;16.90;11.70;;;;;;;15.11;63.04;99272.48;235694;1203;139419;-59
2022/06/14 02:14:20;;;;;;;19.90;13.10;;;;;;;15.23;63.27;99276.36;234876;1203;139542;-60
2022/06/14 02:19:50;;;;;;;19.80;12.60;;;;;;;15.32;63.39;99280.14;234924;1203;140070;-61
2022/06/14 02:25:04;;;;;;;22.00;13.50;;;;;;;15.36;63.50;99277.47;235580;1203;138752;-58
2022/06/14 02:30:17;;;;;;;24.70;14.90;;;;;;;15.40;63.59;99283.96;235529;1203;139211;-57
2022/06/14 02:35:28;;;;;;;22.60;15.50;;;;;;;15.41;63.57;99293.77;235551;1203;139597;-57
2022/06/14 02:40:41;;;;;;;26.50;17.00;;;;;;;15.42;63.73;99304.04;235589;1203;140227;-57
2022/06/14 02:45:52;;;;;;;27.40;17.10;;;;;;;15.48;63.89;99304.48;235682;1203;140268;-58
2022/06/14 02:51:12;;;;;;;25.10;17.40;;;;;;;15.50;64.05;99310.90;235542;1203;139292;-58
2022/06/14 02:56:22;;;;;;;26.00;18.90;;;;;;;15.53;64.11;99316.95;235546;1203;140051;-59
2022/06/14 03:01:52;;;;;;;71.40;53.10;;;;;;;15.57;64.05;99326.46;235582;1204;139218;-57
2022/06/14 03:07:24;;;;;;;23.00;16.70;;;;;;;15.65;64.30;99317.61;235541;1203;139108;-60
2022/06/14 03:12:55;;;;;;;49.80;38.60;;;;;;;15.70;64.10;99316.36;235608;1203;140683;-61
2022/06/14 03:18:34;;;;;;;25.60;16.50;;;;;;;15.79;64.06;99323.16;235609;1203;140197;-58
2022/06/14 03:24:05;;;;;;;25.50;17.10;;;;;;;15.88;64.04;99337.28;235569;1203;139531;-61
2022/06/14 03:29:22;;;;;;;25.20;17.80;;;;;;;15.89;63.93;99341.17;235574;1203;140020;-60
2022/06/14 03:34:36;;;;;;;69.00;53.50;;;;;;;15.86;63.81;99354.63;235568;1203;142187;-59
2022/06/14 03:39:47;;;;;;;32.30;21.00;;;;;;;15.84;64.02;99360.13;235604;1204;139232;-59
2022/06/14 03:44:51;;;;;;;33.70;21.60;;;;;;;15.82;63.72;99361.17;235401;1203;140069;-58
2022/06/14 03:50:04;;;;;;;34.40;22.20;;;;;;;15.84;63.70;99363.00;235240;1203;140744;-56
2022/06/14 03:55:31;;;;;;;33.40;21.70;;;;;;;15.79;63.60;99363.04;235447;1203;139476;-59
2022/06/14 04:01:03;;;;;;;36.50;22.70;;;;;;;15.79;63.73;99376.46;235645;1204;140374;-58
2022/06/14 04:06:34;;;;;;;163.60;127.90;;;;;;;15.83;63.73;99380.39;235573;1202;139599;-58
2022/06/14 04:11:54;;;;;;;35.30;20.40;;;;;;;15.90;63.78;99380.94;235508;1203;142308;-57
2022/06/14 04:17:13;;;;;;;31.70;20.00;;;;;;;15.99;63.38;99382.77;235534;1204;140499;-58
2022/06/14 04:22:37;;;;;;;32.30;19.60;;;;;;;16.04;63.63;99377.73;235732;1202;141600;-60
2022/06/14 04:27:57;;;;;;;30.10;19.60;;;;;;;16.13;63.29;99390.14;235238;1203;138948;-59
2022/06/14 04:33:12;;;;;;;29.70;18.20;;;;;;;16.16;63.34;99385.94;235459;1204;140704;-59
2022/06/14 04:38:21;;;;;;;27.50;18.30;;;;;;;16.19;63.05;99395.11;235511;1202;139032;-59
2022/06/14 04:43:38;;;;;;;25.20;14.50;;;;;;;16.18;62.93;99396.86;235547;1203;139005;-59
2022/06/14 04:48:51;;;;;;;25.80;14.80;;;;;;;16.19;62.70;99393.71;235532;1203;139115;-59
2022/06/14 04:54:05;;;;;;;25.40;14.10;;;;;;;16.17;62.61;99395.45;235485;1204;139570;-60
2022/06/14 04:59:17;;;;;;;24.70;14.10;;;;;;;16.26;62.28;99398.17;235493;1203;140598;-60
2022/06/14 05:04:25;;;;;;;21.80;14.60;;;;;;;16.30;62.60;99403.59;235699;1204;140302;-57
2022/06/14 05:09:34;;;;;;;24.60;15.40;;;;;;;16.28;62.54;99408.02;235547;1204;139691;-59
2022/06/14 05:15:01;;;;;;;25.10;14.70;;;;;;;16.27;62.23;99409.91;235484;1204;139532;-61
2022/06/14 05:20:12;;;;;;;25.60;14.00;;;;;;;16.35;62.15;99413.96;235507;1203;139024;-59
2022/06/14 05:25:16;;;;;;;17.20;13.20;;;;;;;16.26;61.88;99405.54;235534;1203;138949;-59
2022/06/14 05:30:33;;;;;;;21.70;12.30;;;;;;;16.32;61.96;99408.98;235346;1202;139022;-58
2022/06/14 05:35:43;;;;;;;16.50;11.10;;;;;;;16.40;62.03;99411.41;235524;1204;139442;-59
2022/06/14 05:41:02;;;;;;;18.70;11.40;;;;;;;16.54;62.01;99416.46;235457;1203;139610;-59
2022/06/14 05:46:14;;;;;;;20.00;11.30;;;;;;;16.65;61.67;99417.27;235622;1203;138565;-59
2022/06/14 05:51:27;;;;;;;17.30;10.20;;;;;;;16.72;61.71;99410.39;235517;1203;139377;-57
2022/06/14 05:56:39;;;;;;;17.30;10.00;;;;;;;16.75;61.22;99413.42;235539;1203;139155;-57
2022/06/14 06:01:50;;;;;;;18.90;10.70;;;;;;;16.74;61.15;99413.42;235621;1203;139596;-60
2022/06/14 06:07:00;;;;;;;17.60;9.20;;;;;;;16.74;61.14;99412.41;235634;1203;139332;-60
2022/06/14 06:12:10;;;;;;;18.60;8.90;;;;;;;16.76;61.14;99414.21;235481;1202;138779;-60
2022/06/14 06:17:23;;;;;;;15.10;7.90;;;;;;;16.82;60.94;99414.08;235555;1203;138921;-59
2022/06/14 06:22:52;;;;;;;16.30;7.50;;;;;;;16.89;60.59;99413.92;235538;1203;138705;-60
2022/06/14 06:28:02;;;;;;;14.00;6.60;;;;;;;16.89;60.53;99415.85;235631;1202;138826;-60
2022/06/14 06:33:10;;;;;;;12.20;6.20;;;;;;;17.00;60.42;99425.52;235534;1203;139125;-60
2022/06/14 06:38:28;;;;;;;8.70;4.90;;;;;;;17.10;60.36;99429.87;235573;1202;140123;-59
2022/06/14 06:43:33;;;;;;;9.40;4.80;;;;;;;17.19;59.99;99434.48;235569;1203;138745;-60
2022/06/14 06:48:42;;;;;;;6.60;3.70;;;;;;;17.18;59.58;99431.73;235535;1202;138770;-59
2022/06/14 06:54:00;;;;;;;6.20;2.40;;;;;;;17.22;59.32;99430.16;235529;1203;139090;-55
2022/06/14 06:59:21;;;;;;;4.50;2.20;;;;;;;17.28;59.03;99437.39;235514;1203;139031;-58
2022/06/14 07:10:18;;;;;;;4.80;2.00;;;;;;;17.36;58.20;99439.01;235635;1203;139494;-58
2022/06/14 07:15:32;;;;;;;4.50;1.50;;;;;;;17.44;57.70;99445.20;235585;1203;140591;-57
2022/06/14 07:20:57;;;;;;;3.40;1.40;;;;;;;17.48;57.21;99436.59;235602;1203;139984;-57
2022/06/14 07:26:32;;;;;;;4.10;1.50;;;;;;;17.51;56.57;99437.42;235457;1201;138242;-58
2022/06/14 07:31:46;;;;;;;5.60;1.70;;;;;;;17.46;56.29;99441.23;235574;1203;138957;-57
2022/06/14 07:37:13;;;;;;;2.30;1.20;;;;;;;17.51;56.10;99436.48;235608;1202;138605;-58
2022/06/14 07:42:23;;;;;;;2.80;1.50;;;;;;;17.67;56.00;99438.17;235613;1203;140307;-56
2022/06/14 07:48:00;;;;;;;6.90;1.60;;;;;;;17.76;56.01;99433.02;235582;1202;139277;-57
2022/06/14 07:53:16;;;;;;;4.60;1.40;;;;;;;17.82;55.80;99449.93;235443;1202;138599;-55
2022/06/14 07:58:35;;;;;;;4.80;1.60;;;;;;;17.88;55.17;99450.40;235656;1202;138760;-56
2022/06/14 08:03:53;;;;;;;6.40;2.00;;;;;;;17.98;55.04;99449.97;235651;1202;138678;-57
2022/06/14 08:09:08;;;;;;;7.20;1.70;;;;;;;18.00;54.96;99442.05;235615;1202;138340;-59
2022/06/14 08:14:18;;;;;;;6.70;2.00;;;;;;;18.14;54.64;99449.09;235511;1202;138996;-60
2022/06/14 08:19:36;;;;;;;4.80;1.90;;;;;;;18.12;54.28;99449.24;235553;1202;138712;-58
2022/06/14 08:24:44;;;;;;;6.60;2.20;;;;;;;18.18;53.85;99454.28;235540;1202;139159;-55
2022/06/14 08:29:57;;;;;;;5.50;1.50;;;;;;;18.23;54.06;99451.17;235597;1202;139584;-56
2022/06/14 08:35:03;;;;;;;3.40;1.80;;;;;;;18.34;53.80;99447.55;235384;1202;139817;-56
2022/06/14 08:40:33;;;;;;;5.40;2.00;;;;;;;18.41;53.50;99449.23;235597;1202;140293;-56
2022/06/14 08:45:57;;;;;;;5.20;2.90;;;;;;;18.52;53.42;99436.06;235864;1203;139651;-60
2022/06/14 08:51:10;;;;;;;4.80;2.30;;;;;;;18.59;52.72;99437.02;235606;1201;138621;-60
2022/06/14 08:56:31;;;;;;;4.40;1.80;;;;;;;18.68;52.43;99429.39;235696;1203;138288;-60
2022/06/14 09:01:49;;;;;;;4.40;1.90;;;;;;;18.79;51.90;99425.56;235033;1204;139592;-60
2022/06/14 09:07:21;;;;;;;4.90;2.00;;;;;;;18.89;51.88;99409.08;235694;1202;138750;-57
2022/06/14 09:12:33;;;;;;;4.00;1.80;;;;;;;19.05;51.58;99395.46;235462;1202;138304;-60
2022/06/14 09:18:14;;;;;;;3.60;1.80;;;;;;;19.20;51.59;99391.31;235677;1202;138869;-60
2022/06/14 09:23:28;;;;;;;5.20;1.40;;;;;;;19.32;51.15;99390.11;235690;1202;138836;-61
2022/06/14 09:28:55;;;;;;;3.60;2.00;;;;;;;19.33;50.84;99384.31;235703;1203;138857;-58
2022/06/14 09:34:04;;;;;;;2.60;1.30;;;;;;;19.47;50.55;99399.89;235708;1203;138891;-58
2022/06/14 09:39:23;;;;;;;4.50;1.30;;;;;;;19.50;50.46;99394.77;235671;1203;138894;-57
2022/06/14 09:45:02;;;;;;;4.40;1.60;;;;;;;19.60;50.27;99400.29;235676;1203;139063;-57
2022/06/14 09:50:34;;;;;;;4.00;1.40;;;;;;;19.68;49.80;99407.17;235622;1202;138856;-56
2022/06/14 09:55:58;;;;;;;4.70;1.70;;;;;;;19.60;49.50;99407.52;235395;1203;139153;-55
2022/06/14 10:01:25;;;;;;;8.30;3.60;;;;;;;19.47;49.46;99409.50;235761;1202;138471;-56
2022/06/14 10:07:01;;;;;;;5.90;2.00;;;;;;;19.38;49.73;99408.67;235614;1203;138990;-55
2022/06/14 10:12:18;;;;;;;7.50;2.10;;;;;;;19.36;49.73;99411.05;235663;1202;139705;-55
2022/06/14 10:17:51;;;;;;;3.80;1.70;;;;;;;19.39;49.75;99410.60;235630;1203;140037;-55
2022/06/14 10:23:08;;;;;;;45.50;38.40;;;;;;;19.40;49.58;99411.26;235658;1203;138572;-55
2022/06/14 10:28:31;;;;;;;6.50;2.10;;;;;;;19.50;49.62;99415.11;235879;1202;138527;-56
2022/06/14 10:33:49;;;;;;;5.50;1.80;;;;;;;19.57;49.45;99414.31;235999;1203;138257;-58
2022/06/14 10:39:13;;;;;;;3.20;1.60;;;;;;;19.57;49.03;99413.37;235934;1201;138514;-55
2022/06/14 10:44:34;;;;;;;5.80;1.80;;;;;;;19.52;49.08;99413.30;235914;1201;138711;-57
2022/06/14 10:50:11;;;;;;;3.50;1.60;;;;;;;19.57;49.25;99412.06;235903;1202;139676;-57
2022/06/14 10:55:33;;;;;;;3.40;1.40;;;;;;;19.58;49.11;99407.17;235857;1202;138549;-58
2022/06/14 11:00:48;;;;;;;3.20;1.30;;;;;;;19.63;48.81;99413.91;235692;1202;139149;-55
2022/06/14 11:06:09;;;;;;;4.70;1.30;;;;;;;19.65;48.41;99412.13;235576;1203;138816;-59
2022/06/14 11:11:30;;;;;;;2.80;1.20;;;;;;;19.71;48.14;99409.58;235926;1202;138447;-57
2022/06/14 11:16:46;;;;;;;5.20;1.30;;;;;;;19.92;48.10;99413.54;235925;1202;139025;-59
2022/06/14 11:22:10;;;;;;;3.10;1.20;;;;;;;20.09;47.61;99410.16;236101;1203;139000;-58
2022/06/14 11:27:28;;;;;;;24.50;17.10;;;;;;;20.14;47.03;99411.08;235932;1202;139588;-58
2022/06/14 11:32:45;;;;;;;4.50;2.00;;;;;;;20.26;47.05;99406.54;234556;1203;139715;-55
2022/06/14 11:37:58;;;;;;;3.30;1.40;;;;;;;20.57;47.04;99408.23;236035;1202;138469;-57
2022/06/14 11:43:19;;;;;;;4.90;1.60;;;;;;;20.69;46.70;99403.79;235939;1202;139331;-57
2022/06/14 11:48:31;;;;;;;4.30;1.50;;;;;;;20.81;46.23;99406.22;235867;1202;139163;-57
2022/06/14 11:53:45;;;;;;;2.10;1.00;;;;;;;21.00;45.95;99394.11;235776;1202;140705;-58
2022/06/14 11:58:53;;;;;;;4.30;1.00;;;;;;;21.45;45.74;99394.09;235830;1202;139275;-56
2022/06/14 12:04:11;;;;;;;3.40;1.30;;;;;;;21.73;45.15;99382.11;235566;1203;139781;-56
2022/06/14 12:09:35;;;;;;;6.40;1.70;;;;;;;22.15;44.75;99385.91;235715;1203;138956;-58
2022/06/14 12:15:00;;;;;;;4.60;1.10;;;;;;;22.10;43.68;99383.96;235944;1203;139428;-58
2022/06/14 12:20:11;;;;;;;3.40;1.20;;;;;;;21.85;43.49;99389.02;235769;1203;139440;-58
2022/06/14 12:30:44;;;;;;;4.50;1.10;;;;;;;21.54;43.03;99386.45;235802;1203;138752;-58
2022/06/14 12:36:17;;;;;;;4.50;1.00;;;;;;;21.45;43.22;99379.77;235794;1203;139008;-56
2022/06/14 12:41:31;;;;;;;7.10;1.90;;;;;;;21.64;43.40;99374.98;234947;1203;138525;-55
2022/06/14 12:46:40;;;;;;;2.30;0.90;;;;;;;21.99;43.01;99379.86;235620;1203;138549;-56
2022/06/14 12:52:07;;;;;;;2.00;1.10;;;;;;;22.09;42.69;99376.20;236092;1203;141262;-57
2022/06/14 12:57:44;;;;;;;9.10;1.50;;;;;;;22.02;42.32;99375.21;235964;1202;139121;-57
2022/06/14 13:03:01;;;;;;;6.30;1.30;;;;;;;22.01;42.37;99374.95;235974;1203;138730;-56
2022/06/14 13:08:18;;;;;;;4.20;1.10;;;;;;;21.82;42.41;99380.13;235369;1203;138890;-57
2022/06/14 13:13:46;;;;;;;4.80;1.20;;;;;;;21.58;41.98;99375.20;236068;1203;138516;-58
2022/06/14 13:19:04;;;;;;;3.60;1.30;;;;;;;21.45;42.28;99377.86;236048;1202;138833;-58
2022/06/14 13:24:15;;;;;;;8.20;1.40;;;;;;;21.51;42.24;99373.73;234996;1201;139122;-56
2022/06/14 13:29:36;;;;;;;4.00;1.00;;;;;;;21.32;41.77;99374.95;234586;1203;140062;-56
2022/06/14 13:35:01;;;;;;;4.30;1.20;;;;;;;21.10;41.88;99368.11;235963;1202;138525;-58
2022/06/14 13:40:20;;;;;;;5.70;1.70;;;;;;;20.97;41.80;99374.85;236102;1203;138475;-58
2022/06/14 13:45:56;;;;;;;4.10;1.10;;;;;;;20.83;41.65;99376.27;235405;1202;139428;-57
2022/06/14 13:51:05;;;;;;;;;;;;;;;20.78;41.55;99370.98;236073;1202;140061;-57
2022/06/14 13:56:21;;;;;;;3.80;1.10;;;;;;;20.94;42.10;99369.71;235841;1203;126415;-56
2022/06/14 14:01:40;;;;;;;5.10;1.40;;;;;;;21.35;42.03;99365.05;235874;1203;138628;-58
2022/06/14 14:06:51;;;;;;;5.70;1.10;;;;;;;21.54;42.16;99356.27;235945;1203;139071;-59
2022/06/14 14:12:20;;;;;;;3.00;1.60;;;;;;;22.09;42.08;99354.23;235866;1203;140624;-56
2022/06/14 14:17:37;;;;;;;2.00;0.70;;;;;;;22.61;41.73;99342.55;235917;1201;138570;-57
2022/06/14 14:22:51;;;;;;;3.20;0.90;;;;;;;22.99;40.98;99340.77;235810;1203;138743;-58
2022/06/14 14:28:02;;;;;;;3.40;0.90;;;;;;;23.10;39.74;99332.34;234775;1205;139388;-57
2022/06/14 14:33:21;;;;;;;6.40;1.10;;;;;;;23.20;39.22;99327.73;235636;1202;138700;-58
2022/06/14 14:38:27;;;;;;;39.60;31.20;;;;;;;23.21;38.34;99325.80;235854;1202;138828;-56
2022/06/14 14:43:35;;;;;;;2.60;1.10;;;;;;;23.21;38.17;99326.45;235787;1203;139253;-56
2022/06/14 14:48:47;;;;;;;4.70;1.10;;;;;;;23.12;37.63;99325.05;234866;1203;140757;-57
2022/06/14 14:54:28;;;;;;;2.10;0.80;;;;;;;22.88;37.54;99328.84;235804;1203;138465;-59
2022/06/14 14:59:30;;;;;;;3.80;1.00;;;;;;;22.67;37.61;99327.28;235854;1203;138691;-57
2022/06/14 15:10:11;;;;;;;3.30;1.70;;;;;;;22.37;37.63;99332.44;235886;1203;139093;-58
2022/06/14 15:15:15;;;;;;;3.10;1.30;;;;;;;22.25;37.71;99334.52;235882;1203;139168;-57
2022/06/14 15:20:20;;;;;;;4.50;1.20;;;;;;;22.15;37.98;99334.73;235640;1202;139207;-57
2022/06/14 15:25:26;;;;;;;6.00;1.50;;;;;;;22.07;38.22;99330.44;234821;1203;138882;-54
2022/06/14 15:30:42;;;;;;;187.00;127.00;;;;;;;21.98;38.33;99327.14;235752;1203;139220;-54
2022/06/14 15:35:57;;;;;;;10.60;5.30;;;;;;;21.94;38.64;99331.36;235836;1203;139603;-57
2022/06/14 15:41:03;;;;;;;10.20;5.60;;;;;;;21.86;38.64;99326.46;235892;1203;140876;-57
2022/06/14 15:46:22;;;;;;;7.60;1.90;;;;;;;21.86;38.79;99331.53;236054;1204;139182;-58
2022/06/14 15:51:25;;;;;;;8.20;3.40;;;;;;;21.84;39.15;99330.26;235133;1203;138564;-57
2022/06/14 15:56:32;;;;;;;364.50;289.20;;;;;;;21.84;39.35;99331.50;235781;1203;140271;-57
2022/06/14 16:01:38;;;;;;;29.70;20.90;;;;;;;21.88;39.64;99332.31;235877;1203;140109;-57
2022/06/14 16:06:45;;;;;;;10.60;4.10;;;;;;;21.87;39.89;99328.29;235704;1203;139767;-57
2022/06/14 16:11:52;;;;;;;8.20;4.00;;;;;;;21.95;40.05;99323.16;235549;1203;139636;-58
2022/06/14 16:16:57;;;;;;;15.30;5.60;;;;;;;21.96;39.86;99324.14;235789;1204;138494;-58
2022/06/14 16:22:07;;;;;;;2.90;1.50;;;;;;;21.88;39.62;99328.59;235945;1203;139660;-57
2022/06/14 16:27:21;;;;;;;5.00;1.80;;;;;;;21.85;39.67;99328.77;234642;1203;139129;-57
2022/06/14 16:32:45;;;;;;;5.70;2.50;;;;;;;21.88;39.57;99325.16;235703;1202;139588;-58
2022/06/14 16:37:57;;;;;;;43.10;32.30;;;;;;;21.88;39.95;99319.86;235759;1202;139289;-58
2022/06/14 16:43:24;;;;;;;4.50;1.60;;;;;;;21.89;39.96;99322.75;235834;1203;140797;-56
2022/06/14 16:48:45;;;;;;;10.40;5.80;;;;;;;21.88;39.58;99321.72;235809;1203;138841;-55
2022/06/14 16:54:08;;;;;;;101.90;77.00;;;;;;;21.84;39.48;99327.20;235692;1203;138821;-57
2022/06/14 16:59:36;;;;;;;6.80;2.50;;;;;;;21.76;39.22;99327.65;235645;1204;139920;-58
2022/06/14 17:04:53;;;;;;;8.90;4.30;;;;;;;21.73;39.26;99326.70;235716;1204;138602;-57
2022/06/14 17:10:18;;;;;;;6.50;2.00;;;;;;;21.71;39.02;99327.45;235810;1203;138452;-56
2022/06/14 17:15:34;;;;;;;6.90;1.20;;;;;;;21.62;38.80;99328.27;235652;1203;138677;-56
2022/06/14 17:20:52;;;;;;;6.40;1.10;;;;;;;21.48;38.65;99330.77;235700;1203;138639;-57
2022/06/14 17:31:31;;;;;;;3.80;1.10;;;;;;;21.29;38.65;99333.56;235696;1203;138809;-55
2022/06/14 17:36:48;;;;;;;5.90;1.10;;;;;;;21.21;38.47;99334.58;235731;1203;138701;-56
2022/06/14 17:41:56;;;;;;;12.90;1.40;;;;;;;21.17;38.60;99342.19;235431;1202;138855;-56
2022/06/14 17:46:59;;;;;;;4.80;1.10;;;;;;;21.11;38.53;99341.77;235574;1203;139078;-56
2022/06/14 17:52:05;;;;;;;9.40;1.50;;;;;;;20.99;38.55;99336.72;235686;1203;140044;-56
2022/06/14 17:57:17;;;;;;;4.00;1.10;;;;;;;20.98;38.52;99337.39;235311;1204;139743;-57
2022/06/14 18:02:27;;;;;;;5.60;1.30;;;;;;;20.91;38.78;99341.91;235739;1203;138708;-57
2022/06/14 18:07:50;;;;;;;5.60;1.10;;;;;;;20.86;38.70;99343.17;235726;1203;139333;-56
2022/06/14 18:12:55;;;;;;;3.80;1.30;;;;;;;20.77;38.82;99340.98;235687;1204;139129;-57
2022/06/14 18:18:00;;;;;;;103.00;59.60;;;;;;;20.68;38.96;99345.63;235572;1204;138546;-56
2022/06/14 18:23:09;;;;;;;41.20;33.30;;;;;;;20.61;39.56;99347.60;235689;1203;139551;-56
2022/06/14 18:28:25;;;;;;;5.50;3.10;;;;;;;20.64;40.25;99352.16;235686;1204;139017;-55
2022/06/14 18:33:48;;;;;;;49.50;38.10;;;;;;;20.54;40.27;99355.30;235728;1204;140261;-55
2022/06/14 18:38:54;;;;;;;7.50;2.80;;;;;;;20.44;40.44;99359.54;235585;1203;140849;-57
2022/06/14 18:44:05;;;;;;;4.30;1.80;;;;;;;20.28;40.67;99365.41;234232;1203;139371;-55
2022/06/14 18:49:40;;;;;;;3.00;1.40;;;;;;;20.09;40.92;99370.67;235059;1203;138645;-56
2022/06/14 18:54:46;;;;;;;5.20;1.60;;;;;;;19.88;41.15;99378.84;235670;1202;139263;-57
2022/06/14 18:59:50;;;;;;;6.10;1.80;;;;;;;19.68;41.46;99385.91;235639;1203;138562;-56
2022/06/14 19:04:53;;;;;;;6.50;2.30;;;;;;;19.50;41.58;99389.40;235645;1204;140098;-58
2022/06/14 19:10:08;;;;;;;6.20;2.00;;;;;;;19.34;41.89;99397.92;235755;1203;139000;-56
2022/06/14 19:15:14;;;;;;;7.80;2.00;;;;;;;19.22;42.26;99403.92;235601;1204;140755;-56
2022/06/14 19:20:19;;;;;;;9.10;1.90;;;;;;;19.08;42.57;99408.62;235656;1202;139184;-56
2022/06/14 19:25:39;;;;;;;4.20;1.70;;;;;;;18.96;42.69;99413.10;235608;1203;138705;-55
2022/06/14 19:30:52;;;;;;;4.00;1.80;;;;;;;18.85;43.03;99423.26;235624;1203;138347;-58
2022/06/14 19:36:04;;;;;;;4.70;2.20;;;;;;;18.71;43.20;99427.59;235627;1203;138793;-56
2022/06/14 19:41:17;;;;;;;6.40;1.80;;;;;;;18.59;43.36;99426.98;235634;1202;140140;-55
2022/06/14 19:46:32;;;;;;;6.50;1.90;;;;;;;18.48;43.78;99430.14;235750;1203;138747;-55
2022/06/14 19:51:39;;;;;;;6.20;1.80;;;;;;;18.39;43.88;99428.25;235786;1203;138611;-56
2022/06/14 19:56:44;;;;;;;11.60;2.70;;;;;;;18.32;44.12;99431.50;235649;1203;138515;-57
2022/06/14 20:01:50;;;;;;;6.00;2.60;;;;;;;18.25;44.52;99434.35;234904;1202;139072;-57
2022/06/14 20:07:07;;;;;;;6.90;2.30;;;;;;;18.17;44.56;99440.04;235546;1204;138292;-56
2022/06/14 20:12:20;;;;;;;6.60;2.20;;;;;;;18.08;44.69;99437.02;235682;1202;138735;-59
2022/06/14 20:17:32;;;;;;;6.20;2.30;;;;;;;18.02;44.74;99436.48;235743;1203;138834;-57
2022/06/14 20:22:40;;;;;;;5.70;2.10;;;;;;;17.94;44.94;99438.98;235600;1203;138768;-57
2022/06/14 20:27:49;;;;;;;4.90;2.00;;;;;;;17.88;45.31;99438.05;235709;1202;138936;-56
2022/06/14 20:32:52;;;;;;;7.30;2.10;;;;;;;17.80;45.38;99445.21;235625;1201;138822;-56
2022/06/14 20:38:01;;;;;;;9.00;2.00;;;;;;;17.75;45.59;99449.56;235621;1203;139068;-58
2022/06/14 20:43:13;;;;;;;4.50;2.30;;;;;;;17.70;45.81;99454.65;235600;1202;139200;-56
2022/06/14 20:48:21;;;;;;;5.40;2.70;;;;;;;17.72;45.86;99453.57;235670;1203;139108;-57
2022/06/14 20:53:31;;;;;;;4.80;2.30;;;;;;;17.73;45.72;99450.27;235639;1201;139648;-58
2022/06/14 20:58:35;;;;;;;5.70;2.40;;;;;;;17.74;46.07;99454.98;235577;1203;138561;-59
2022/06/14 21:03:41;;;;;;;3.80;2.10;;;;;;;17.75;46.08;99454.95;235719;1202;139505;-55
2022/06/14 21:08:48;;;;;;;6.10;2.40;;;;;;;17.79;46.22;99456.44;235574;1203;139993;-57
2022/06/14 21:13:54;;;;;;;3.80;2.00;;;;;;;17.81;46.21;99452.84;235731;1202;138946;-58
2022/06/14 21:18:58;;;;;;;6.00;2.30;;;;;;;17.81;46.13;99465.39;235658;1202;140238;-58
2022/06/14 21:24:14;;;;;;;5.60;1.90;;;;;;;17.77;46.01;99457.83;235688;1203;139439;-58
2022/06/14 21:29:18;;;;;;;3.40;1.90;;;;;;;17.76;46.26;99468.13;235603;1202;139594;-58
2022/06/14 21:34:21;;;;;;;5.60;2.00;;;;;;;17.72;46.35;99471.36;235072;1203;138612;-57
2022/06/14 21:39:42;;;;;;;4.80;1.90;;;;;;;17.72;46.17;99473.29;235844;1203;138692;-58
2022/06/14 21:44:52;;;;;;;4.60;2.00;;;;;;;17.68;46.28;99472.52;235779;1202;138480;-58
2022/06/14 21:49:56;;;;;;;6.00;2.50;;;;;;;17.66;46.55;99476.30;235727;1203;138786;-58
2022/06/14 21:55:05;;;;;;;5.50;2.00;;;;;;;17.65;46.69;99481.30;235974;1203;140764;-58
2022/06/14 22:00:32;;;;;;;4.10;2.00;;;;;;;17.62;46.63;99484.88;235783;1202;139202;-58
2022/06/14 22:05:35;;;;;;;4.60;1.90;;;;;;;17.58;46.59;99486.38;235733;1202;139265;-58
2022/06/14 22:10:38;;;;;;;4.80;2.10;;;;;;;17.56;46.60;99486.39;235737;1203;138834;-57
2022/06/14 22:15:42;;;;;;;5.50;2.00;;;;;;;17.50;46.58;99483.97;235905;1202;138914;-58
2022/06/14 22:20:45;;;;;;;3.40;1.80;;;;;;;17.50;47.05;99492.77;235790;1203;139264;-58
2022/06/14 22:25:50;;;;;;;3.00;1.70;;;;;;;17.47;46.80;99492.84;235688;1203;139747;-56
2022/06/14 22:30:53;;;;;;;3.10;1.70;;;;;;;17.48;46.99;99498.79;235687;1202;140217;-57
2022/06/14 22:36:06;;;;;;;5.00;1.70;;;;;;;17.43;47.09;99499.42;235807;1202;138662;-58
2022/06/14 22:41:12;;;;;;;6.70;2.10;;;;;;;17.39;47.27;99500.80;235814;1203;138485;-58
2022/06/14 22:46:18;;;;;;;7.90;2.10;;;;;;;17.33;47.16;99503.71;235832;1202;140205;-57
2022/06/14 22:51:21;;;;;;;4.80;2.00;;;;;;;17.23;47.15;99512.04;235749;1202;139778;-57
2022/06/14 22:56:24;;;;;;;7.50;1.90;;;;;;;17.12;47.36;99504.34;235791;1202;139290;-57
2022/06/14 23:01:27;;;;;;;7.80;1.90;;;;;;;17.06;47.49;99504.30;235905;1202;139294;-57
2022/06/14 23:06:30;;;;;;;4.40;2.10;;;;;;;16.95;47.34;99507.12;235942;1202;138736;-57
2022/06/14 23:11:33;;;;;;;4.80;1.80;;;;;;;16.90;47.75;99509.50;235830;1202;140123;-58
2022/06/14 23:16:36;;;;;;;6.70;1.70;;;;;;;16.80;47.79;99507.94;235885;1201;139532;-56
2022/06/14 23:21:39;;;;;;;4.00;1.70;;;;;;;16.76;47.62;99509.73;235992;1203;139200;-57
2022/06/14 23:26:43;;;;;;;5.80;1.60;;;;;;;16.67;47.76;99501.95;235771;1202;138537;-58
2022/06/14 23:31:46;;;;;;;7.70;1.80;;;;;;;16.56;47.90;99508.77;235818;1202;138985;-56
2022/06/14 23:36:49;;;;;;;4.50;1.50;;;;;;;16.44;47.96;99510.30;235151;1203;138885;-58
2022/06/14 23:41:53;;;;;;;3.80;1.50;;;;;;;16.31;48.39;99509.48;235081;1204;138755;-56
2022/06/14 23:46:56;;;;;;;6.80;2.00;;;;;;;16.21;48.56;99510.65;235488;1204;139602;-57
2022/06/14 23:51:59;;;;;;;5.70;1.60;;;;;;;16.07;48.70;99512.96;235981;1203;138819;-56
2022/06/14 23:57:03;;;;;;;3.20;1.40;;;;;;;15.96;48.99;99508.28;235907;1203;138497;-58
